createdAt,value
2024-04-26T00:00:13.679Z,942.361084
2024-04-26T00:01:15.115Z,942.3272095
2024-04-26T00:02:47.266Z,942.2920532
2024-04-26T00:03:57.076Z,942.2817383
2024-04-26T00:05:51.739Z,942.2995605
2024-04-26T00:06:52.944Z,942.2849731
2024-04-26T00:07:54.501Z,942.2924194
2024-04-26T00:08:56.022Z,942.2911987
2024-04-26T00:09:57.695Z,942.2702637
2024-04-26T00:10:59.006Z,942.2737427
2024-04-26T00:12:01.428Z,942.2260132
2024-04-26T00:13:03.011Z,942.2156372
2024-04-26T00:14:05.137Z,942.1898193
2024-04-26T00:15:06.698Z,942.1856079
2024-04-26T00:16:08.185Z,942.1652832
2024-04-26T00:17:09.646Z,942.1520386
2024-04-26T00:18:11.221Z,942.1988525
2024-04-26T00:19:12.644Z,942.178772
2024-04-26T00:20:14.333Z,942.1988525
2024-04-26T00:21:46.629Z,942.201416
2024-04-26T00:22:48.043Z,942.192627
2024-04-26T00:23:50.215Z,942.2120361
2024-04-26T00:24:51.661Z,942.194397
2024-04-26T00:25:53.663Z,942.1730347
2024-04-26T00:26:54.586Z,942.1940918
2024-04-26T00:27:56.014Z,942.1940918
2024-04-26T00:28:57.681Z,942.1763306
2024-04-26T00:29:59.239Z,942.1911621
2024-04-26T00:31:00.489Z,942.1695557
2024-04-26T00:32:02.102Z,942.1372681
2024-04-26T00:33:03.821Z,942.1744385
2024-04-26T00:34:05.160Z,942.1688843
2024-04-26T00:35:07.227Z,942.1925049
2024-04-26T00:36:08.622Z,942.1925049
2024-04-26T00:37:10.148Z,942.1876831
2024-04-26T00:38:11.627Z,942.1489258
2024-04-26T00:39:13.164Z,942.1618652
2024-04-26T00:40:14.789Z,942.1547852
2024-04-26T00:41:46.539Z,942.1428223
2024-04-26T00:42:48.706Z,942.111145
2024-04-26T00:43:50.037Z,942.1386108
2024-04-26T00:44:51.557Z,942.0982666
2024-04-26T00:45:52.983Z,942.088623
2024-04-26T00:46:54.712Z,942.0943604
2024-04-26T00:47:56.191Z,942.1418457
2024-04-26T00:48:57.633Z,942.1585693
2024-04-26T00:49:58.988Z,942.152832
2024-04-26T00:51:00.616Z,942.1456909
2024-04-26T00:52:02.024Z,942.1275635
2024-04-26T00:53:03.710Z,942.1566162
2024-04-26T00:54:06.047Z,942.1749878
2024-04-26T00:55:07.599Z,942.1682739
2024-04-26T00:56:09.162Z,942.1737671
2024-04-26T00:57:10.664Z,942.1629639
2024-04-26T00:58:14.064Z,942.2201538
2024-04-26T00:59:46.994Z,942.2146606
2024-04-26T01:00:47.537Z,942.2017212
2024-04-26T01:01:49.119Z,942.2410889
2024-04-26T01:03:48.536Z,942.2498169
2024-04-26T01:04:54.762Z,942.2246094
2024-04-26T01:05:56.024Z,942.1697388
2024-04-26T01:06:57.656Z,942.1720581
2024-04-26T01:07:59.023Z,942.1906738
2024-04-26T01:09:00.536Z,942.1784668
2024-04-26T01:10:02.226Z,942.1607056
2024-04-26T01:11:04.193Z,942.1558838
2024-04-26T01:12:05.528Z,942.227478
2024-04-26T01:13:09.019Z,942.199707
2024-04-26T01:14:11.121Z,942.1722412
2024-04-26T01:15:11.823Z,942.2025757
2024-04-26T01:16:13.596Z,942.2154541
2024-04-26T01:17:45.546Z,942.2224731
2024-04-26T01:18:47.313Z,942.2373657
2024-04-26T01:19:48.555Z,942.2658081
2024-04-26T01:20:50.172Z,942.2250977
2024-04-26T01:21:51.479Z,942.2556763
2024-04-26T01:22:52.976Z,942.2198486
2024-04-26T01:23:54.636Z,942.2011108
2024-04-26T01:24:56.191Z,942.1688232
2024-04-26T01:25:57.790Z,942.2226563
2024-04-26T01:26:59.277Z,942.2059326
2024-04-26T01:28:00.755Z,942.2171631
2024-04-26T01:29:02.495Z,942.142334
2024-04-26T01:30:04.664Z,942.1343994
2024-04-26T01:31:06.126Z,942.1504517
2024-04-26T01:32:07.681Z,942.0933838
2024-04-26T01:33:09.212Z,942.0904541
2024-04-26T01:35:11.610Z,942.0614624
2024-04-26T01:36:13.009Z,942.029541
2024-04-26T01:37:45.475Z,942.015625
2024-04-26T01:38:47.131Z,941.9698486
2024-04-26T01:39:48.558Z,942.0147095
2024-04-26T01:40:50.158Z,942.0075684
2024-04-26T01:41:51.851Z,942.0172119
2024-04-26T01:42:53.171Z,942.0246582
2024-04-26T01:43:54.522Z,942.0424194
2024-04-26T01:44:56.089Z,942.0321045
2024-04-26T01:45:58.390Z,942.0343628
2024-04-26T01:47:00.128Z,942.0740356
2024-04-26T01:48:01.707Z,942.0459595
2024-04-26T01:49:03.122Z,942.0256348
2024-04-26T01:50:04.567Z,942.0482788
2024-04-26T01:51:06.307Z,942.0195313
2024-04-26T01:52:07.657Z,942.0567017
2024-04-26T01:53:08.551Z,942.0673218
2024-04-26T01:54:10.142Z,942.038269
2024-04-26T01:55:11.519Z,942.0512695
2024-04-26T01:56:13.164Z,942.0164185
2024-04-26T01:57:45.139Z,942.0060425
2024-04-26T01:58:46.686Z,942.0205688
2024-04-26T01:59:47.711Z,942.0393066
2024-04-26T02:00:49.077Z,942.0715332
2024-04-26T02:01:50.729Z,942.0942383
2024-04-26T02:02:52.272Z,942.0580444
2024-04-26T02:03:53.772Z,942.0661011
2024-04-26T02:04:54.487Z,942.0338135
2024-04-26T02:05:56.045Z,942.0531006
2024-04-26T02:06:57.511Z,942.0360718
2024-04-26T02:07:58.354Z,942.053894
2024-04-26T02:08:59.119Z,942.0321655
2024-04-26T02:10:00.798Z,942.0812378
2024-04-26T02:11:02.211Z,942.09198
2024-04-26T02:12:03.800Z,942.0838013
2024-04-26T02:13:04.682Z,942.1177368
2024-04-26T02:14:07.142Z,942.1177368
2024-04-26T02:15:08.277Z,942.1257935
2024-04-26T02:16:09.683Z,942.1057739
2024-04-26T02:17:10.509Z,942.1219482
2024-04-26T02:18:12.163Z,942.0563965
2024-04-26T02:19:13.686Z,942.0870361
2024-04-26T02:20:45.901Z,942.0670166
2024-04-26T02:21:47.531Z,942.0490723
2024-04-26T02:22:49.077Z,942.0402832
2024-04-26T02:23:50.649Z,942.0247803
2024-04-26T02:24:52.052Z,942.0222168
2024-04-26T02:25:53.813Z,942.0192871
2024-04-26T02:26:55.654Z,942.0370483
2024-04-26T02:27:58.259Z,942.0176392
2024-04-26T02:29:00.317Z,942.0393066
2024-04-26T02:30:01.607Z,942.0119019
2024-04-26T02:31:03.210Z,942.0218506
2024-04-26T02:32:04.756Z,941.9976807
2024-04-26T02:33:06.808Z,942.0009155
2024-04-26T02:34:08.284Z,941.9743652
2024-04-26T02:35:09.661Z,941.9486084
2024-04-26T02:36:11.655Z,941.9556885
2024-04-26T02:37:13.122Z,942.0203247
2024-04-26T02:38:45.710Z,941.9854126
2024-04-26T02:39:46.518Z,942.0015869
2024-04-26T02:40:47.975Z,941.9812622
2024-04-26T02:41:49.610Z,942.0360718
2024-04-26T02:42:51.127Z,942.0324707
2024-04-26T02:43:52.615Z,942.0218506
2024-04-26T02:44:54.246Z,942.0179443
2024-04-26T02:45:55.650Z,942.0144043
2024-04-26T02:46:57.140Z,942.0337524
2024-04-26T02:47:58.099Z,942.0278931
2024-04-26T02:48:59.732Z,942.046875
2024-04-26T02:50:01.117Z,942.0866699
2024-04-26T02:51:02.601Z,942.0671997
2024-04-26T02:52:03.987Z,942.0571899
2024-04-26T02:53:05.606Z,942.0391235
2024-04-26T02:54:07.740Z,942.0510254
2024-04-26T02:55:08.488Z,942.0387573
2024-04-26T02:56:09.155Z,942.0367432
2024-04-26T02:57:10.545Z,942.05896
2024-04-26T02:58:12.017Z,942.0117798
2024-04-26T02:59:14.137Z,942.0546265
2024-04-26T03:00:46.092Z,942.0778198
2024-04-26T03:01:48.421Z,942.0678101
2024-04-26T03:02:50.075Z,942.1018677
2024-04-26T03:03:51.618Z,942.0744629
2024-04-26T03:04:53.171Z,942.0718994
2024-04-26T03:05:54.691Z,942.1079712
2024-04-26T03:06:57.266Z,942.0682983
2024-04-26T03:07:58.983Z,942.0998535
2024-04-26T03:09:00.592Z,942.1192017
2024-04-26T03:10:02.014Z,942.1282959
2024-04-26T03:11:03.646Z,942.0960693
2024-04-26T03:12:05.279Z,942.1060791
2024-04-26T03:13:05.931Z,942.1083374
2024-04-26T03:14:07.484Z,942.1735229
2024-04-26T03:15:08.435Z,942.1228027
2024-04-26T03:16:09.117Z,942.180542
2024-04-26T03:17:10.692Z,942.1821899
2024-04-26T03:18:12.328Z,942.1466675
2024-04-26T03:19:44.631Z,942.1853027
2024-04-26T03:20:46.032Z,942.1818237
2024-04-26T03:21:47.637Z,942.2037354
2024-04-26T03:22:49.631Z,942.1713867
2024-04-26T03:23:51.146Z,942.2076416
2024-04-26T03:24:53.310Z,942.2230225
2024-04-26T03:25:55.155Z,942.1607666
2024-04-26T03:26:55.996Z,942.1942749
2024-04-26T03:27:57.747Z,942.2033691
2024-04-26T03:28:59.737Z,942.2507935
2024-04-26T03:30:01.082Z,942.2589111
2024-04-26T03:31:02.561Z,942.2575684
2024-04-26T03:32:04.209Z,942.2307739
2024-04-26T03:33:05.787Z,942.2388306
2024-04-26T03:34:07.233Z,942.2524414
2024-04-26T03:35:08.661Z,942.2146606
2024-04-26T03:36:12.744Z,942.1532593
2024-04-26T03:37:12.699Z,942.1990356
2024-04-26T03:38:44.812Z,942.2423706
2024-04-26T03:39:46.197Z,942.2496948
2024-04-26T03:40:48.178Z,942.2084351
2024-04-26T03:41:49.552Z,942.2461548
2024-04-26T03:42:51.307Z,942.2235718
2024-04-26T03:43:52.988Z,942.2025146
2024-04-26T03:44:54.871Z,942.1886597
2024-04-26T03:45:56.505Z,942.2321777
2024-04-26T03:46:58.138Z,942.2370605
2024-04-26T03:47:59.769Z,942.1940918
2024-04-26T03:49:01.253Z,942.1947021
2024-04-26T03:50:02.620Z,942.184082
2024-04-26T03:51:04.125Z,942.1571655
2024-04-26T03:52:05.583Z,942.1846924
2024-04-26T03:53:07.052Z,942.178772
2024-04-26T03:54:08.749Z,942.2132568
2024-04-26T03:55:10.117Z,942.1981201
2024-04-26T03:56:11.622Z,942.1829834
2024-04-26T03:57:44.012Z,942.1710815
2024-04-26T03:58:45.607Z,942.1813965
2024-04-26T03:59:47.590Z,942.1947021
2024-04-26T04:00:50.375Z,942.2001343
2024-04-26T04:01:50.560Z,942.1904907
2024-04-26T04:02:52.172Z,942.1747437
2024-04-26T04:03:53.751Z,942.211853
2024-04-26T04:04:55.228Z,942.2160645
2024-04-26T04:05:56.538Z,942.1773682
2024-04-26T04:06:58.044Z,942.2290039
2024-04-26T04:07:59.481Z,942.2409668
2024-04-26T04:09:01.127Z,942.2457886
2024-04-26T04:10:02.602Z,942.2209473
2024-04-26T04:11:03.985Z,942.2047729
2024-04-26T04:12:05.730Z,942.1757813
2024-04-26T04:13:07.148Z,942.248291
2024-04-26T04:14:08.664Z,942.2467041
2024-04-26T04:15:10.194Z,942.2306519
2024-04-26T04:16:11.634Z,942.2139282
2024-04-26T04:17:43.866Z,942.1987305
2024-04-26T04:18:45.410Z,942.2180176
2024-04-26T04:19:47.732Z,942.1987305
2024-04-26T04:20:49.559Z,942.2084351
2024-04-26T04:21:51.053Z,942.1842041
2024-04-26T04:22:52.537Z,942.2026367
2024-04-26T04:23:54.274Z,942.2478027
2024-04-26T04:24:55.496Z,942.2471313
2024-04-26T04:25:57.214Z,942.2496948
2024-04-26T04:26:58.736Z,942.2477417
2024-04-26T04:28:00.118Z,942.263916
2024-04-26T04:29:01.728Z,942.2446899
2024-04-26T04:30:03.332Z,942.3079834
2024-04-26T04:31:04.630Z,942.2792358
2024-04-26T04:32:06.149Z,942.3007813
2024-04-26T04:33:07.902Z,942.2556152
2024-04-26T04:34:09.317Z,942.2593994
2024-04-26T04:35:10.697Z,942.2787476
2024-04-26T04:36:12.203Z,942.3345337
2024-04-26T04:37:44.064Z,942.3241577
2024-04-26T04:38:45.679Z,942.3222046
2024-04-26T04:39:46.981Z,942.3453369
2024-04-26T04:40:48.540Z,942.3584595
2024-04-26T04:41:50.182Z,942.3816528
2024-04-26T04:42:51.612Z,942.3961182
2024-04-26T04:43:53.159Z,942.4386597
2024-04-26T04:44:54.729Z,942.4386597
2024-04-26T04:45:56.145Z,942.4057617
2024-04-26T04:46:57.680Z,942.4483032
2024-04-26T04:47:59.173Z,942.4676514
2024-04-26T04:49:00.616Z,942.4543457
2024-04-26T04:50:01.979Z,942.4366455
2024-04-26T04:51:03.676Z,942.4672852
2024-04-26T04:52:04.995Z,942.4656372
2024-04-26T04:53:06.627Z,942.4511108
2024-04-26T04:54:10.362Z,942.4274902
2024-04-26T04:56:11.014Z,942.4645386
2024-04-26T04:57:43.188Z,942.477478
2024-04-26T04:58:44.533Z,942.4765625
2024-04-26T04:59:46.570Z,942.4694824
2024-04-26T05:00:48.321Z,942.515625
2024-04-26T05:01:50.185Z,942.5543823
2024-04-26T05:02:51.843Z,942.5446777
2024-04-26T05:03:53.899Z,942.5714722
2024-04-26T05:04:55.179Z,942.5901489
2024-04-26T05:05:56.674Z,942.6299438
2024-04-26T05:06:59.583Z,942.6685791
2024-04-26T05:08:00.193Z,942.6628418
2024-04-26T05:09:01.662Z,942.6379395
2024-04-26T05:10:03.038Z,942.6389771
2024-04-26T05:11:04.503Z,942.6809082
2024-04-26T05:12:06.738Z,942.6702271
2024-04-26T05:13:08.243Z,942.649231
2024-04-26T05:14:09.711Z,942.6970825
2024-04-26T05:15:11.333Z,942.7258301
2024-04-26T05:16:42.996Z,942.6921387
2024-04-26T05:17:45.247Z,942.689209
2024-04-26T05:18:46.264Z,942.6928711
2024-04-26T05:19:47.756Z,942.6600952
2024-04-26T05:20:49.164Z,942.6501465
2024-04-26T05:21:50.511Z,942.666748
2024-04-26T05:22:51.994Z,942.6903076
2024-04-26T05:23:53.811Z,942.6187744
2024-04-26T05:24:55.092Z,942.680481
2024-04-26T05:25:56.492Z,942.5946655
2024-04-26T05:26:58.104Z,942.585083
2024-04-26T05:28:00.667Z,942.6439209
2024-04-26T05:29:02.672Z,942.6262207
2024-04-26T05:30:03.599Z,942.6137695
2024-04-26T05:31:05.207Z,942.607666
2024-04-26T05:32:06.628Z,942.5567017
2024-04-26T05:33:08.534Z,942.5507202
2024-04-26T05:34:10.538Z,942.569519
2024-04-26T05:35:11.520Z,942.5298462
2024-04-26T05:36:44.113Z,942.5345459
2024-04-26T05:37:45.615Z,942.4651489
2024-04-26T05:38:46.605Z,942.4978027
2024-04-26T05:39:48.026Z,942.520752
2024-04-26T05:40:49.598Z,942.5443726
2024-04-26T05:41:51.794Z,942.5463867
2024-04-26T05:42:53.127Z,942.5703125
2024-04-26T05:43:54.753Z,942.5551758
2024-04-26T05:44:56.180Z,942.5254517
2024-04-26T05:45:57.752Z,942.5268555
2024-04-26T05:46:59.069Z,942.4874878
2024-04-26T05:48:01.435Z,942.473877
2024-04-26T05:49:03.354Z,942.456543
2024-04-26T05:50:04.757Z,942.4326782
2024-04-26T05:51:06.209Z,942.5179443
2024-04-26T05:52:07.643Z,942.5335083
2024-04-26T05:53:09.113Z,942.5402832
2024-04-26T05:54:10.691Z,942.5543823
2024-04-26T05:55:42.570Z,942.6070557
2024-04-26T05:56:44.115Z,942.640625
2024-04-26T05:57:45.527Z,942.600647
2024-04-26T05:58:47.695Z,942.5854492
2024-04-26T05:59:49.009Z,942.5818481
2024-04-26T06:00:50.688Z,942.6174927
2024-04-26T06:01:52.127Z,942.7017822
2024-04-26T06:02:53.661Z,942.7351685
2024-04-26T06:03:55.306Z,942.7424927
2024-04-26T06:04:56.686Z,942.8495483
2024-04-26T06:05:58.174Z,942.8485107
2024-04-26T06:06:59.494Z,942.8429565
2024-04-26T06:08:45.998Z,942.8613892
2024-04-26T06:10:04.058Z,942.8827515
2024-04-26T06:11:05.643Z,942.8966675
2024-04-26T06:12:07.768Z,942.8973389
2024-04-26T06:13:17.818Z,942.9379883
2024-04-26T06:14:10.599Z,942.9642334
2024-04-26T06:15:42.565Z,942.973877
2024-04-26T06:16:43.446Z,942.9516602
2024-04-26T06:17:45.302Z,942.9478149
2024-04-26T06:18:46.820Z,942.9794312
2024-04-26T06:19:48.256Z,943.0007935
2024-04-26T06:20:49.724Z,942.9795532
2024-04-26T06:21:51.210Z,942.9927979
2024-04-26T06:22:52.582Z,942.9695435
2024-04-26T06:23:54.138Z,943.0006104
2024-04-26T06:24:55.571Z,943.0300293
2024-04-26T06:25:57.006Z,943.0455322
2024-04-26T06:26:58.656Z,943.0209351
2024-04-26T06:28:00.080Z,943.0510254
2024-04-26T06:29:02.163Z,943.0614014
2024-04-26T06:30:03.542Z,943.0568848
2024-04-26T06:31:05.048Z,943.046875
2024-04-26T06:32:06.616Z,943.0574951
2024-04-26T06:33:08.215Z,943.0290527
2024-04-26T06:34:09.993Z,943.0504761
2024-04-26T06:35:42.699Z,943.0630493
2024-04-26T06:36:44.178Z,943.0064697
2024-04-26T06:37:45.654Z,943.0734253
2024-04-26T06:38:47.147Z,943.0931396
2024-04-26T06:39:47.902Z,943.0393677
2024-04-26T06:40:49.600Z,943.0365601
2024-04-26T06:41:51.134Z,943.0461426
2024-04-26T06:42:52.571Z,943.053894
2024-04-26T06:43:56.903Z,943.0512695
2024-04-26T06:44:55.559Z,943.0137329
2024-04-26T06:45:57.129Z,943.0117188
2024-04-26T06:46:58.684Z,942.967041
2024-04-26T06:48:00.392Z,942.9447021
2024-04-26T06:49:01.975Z,942.9168701
2024-04-26T06:50:03.074Z,942.9210205
2024-04-26T06:51:06.738Z,942.8873291
2024-04-26T06:52:08.135Z,942.8909302
2024-04-26T06:53:09.632Z,942.8361206
2024-04-26T06:54:42.011Z,942.8629761
2024-04-26T06:55:43.581Z,942.892334
2024-04-26T06:56:45.172Z,942.9176025
2024-04-26T06:57:46.589Z,942.8693848
2024-04-26T06:58:48.191Z,942.8646851
2024-04-26T06:59:49.132Z,942.909668
2024-04-26T07:00:50.704Z,942.852356
2024-04-26T07:01:52.254Z,942.8859253
2024-04-26T07:02:54.089Z,942.9046631
2024-04-26T07:03:55.368Z,942.8822632
2024-04-26T07:04:56.750Z,942.8987427
2024-04-26T07:05:58.077Z,942.8925171
2024-04-26T07:07:00.253Z,942.9309082
2024-04-26T07:08:02.034Z,942.9611206
2024-04-26T07:09:03.624Z,942.9597168
2024-04-26T07:10:05.346Z,942.9942017
2024-04-26T07:11:06.778Z,943.0042114
2024-04-26T07:12:08.305Z,942.956543
2024-04-26T07:13:09.608Z,942.9425049
2024-04-26T07:14:41.581Z,942.9908447
2024-04-26T07:15:43.052Z,942.9684448
2024-04-26T07:16:44.649Z,943.0376587
2024-04-26T07:17:46.574Z,943.0161133
2024-04-26T07:19:22.933Z,943.0485229
2024-04-26T07:20:50.486Z,943.0159302
2024-04-26T07:21:52.101Z,943.0834351
2024-04-26T07:23:01.557Z,943.0678101
2024-04-26T07:23:55.174Z,943.0801392
2024-04-26T07:24:56.567Z,943.0764771
2024-04-26T07:25:58.190Z,943.0487671
2024-04-26T07:26:59.688Z,943.0637207
2024-04-26T07:28:01.112Z,943.0559082
2024-04-26T07:29:14.909Z,943.0431519
2024-04-26T07:30:04.186Z,943.0945435
2024-04-26T07:31:05.686Z,943.1255493
2024-04-26T07:32:07.177Z,943.1668701
2024-04-26T07:33:08.824Z,943.1272583
2024-04-26T07:34:10.922Z,943.1066895
2024-04-26T07:35:42.651Z,943.1026611
2024-04-26T07:36:44.340Z,943.0508423
2024-04-26T07:37:46.172Z,943.0531006
2024-04-26T07:38:47.617Z,943.0515747
2024-04-26T07:39:49.154Z,943.0839233
2024-04-26T07:40:50.696Z,943.0639038
2024-04-26T07:41:51.560Z,943.0969238
2024-04-26T07:42:53.099Z,943.0596924
2024-04-26T07:43:56.486Z,943.0652466
2024-04-26T07:44:55.573Z,943.1116943
2024-04-26T07:45:57.016Z,943.1102905
2024-04-26T07:46:59.100Z,943.12677
2024-04-26T07:48:00.927Z,943.1681519
2024-04-26T07:49:03.422Z,943.1261597
2024-04-26T07:50:04.487Z,943.1379395
2024-04-26T07:51:05.869Z,943.1154785
2024-04-26T07:52:07.206Z,943.0874023
2024-04-26T07:53:08.657Z,943.0432739
2024-04-26T07:54:41.521Z,943.0420532
2024-04-26T07:55:43.058Z,943.0472412
2024-04-26T07:56:44.882Z,943.0268555
2024-04-26T07:57:46.619Z,943.0658569
2024-04-26T07:58:48.210Z,943.0062256
2024-04-26T07:59:49.879Z,943.0041504
2024-04-26T08:00:52.232Z,943.0292358
2024-04-26T08:01:53.623Z,942.9816895
2024-04-26T08:02:55.312Z,943.0201416
2024-04-26T08:03:56.763Z,942.9820557
2024-04-26T08:04:57.776Z,942.9949951
2024-04-26T08:05:59.206Z,942.9787598
2024-04-26T08:07:00.630Z,942.9765625
2024-04-26T08:08:02.156Z,943.0289307
2024-04-26T08:09:03.677Z,942.97052
2024-04-26T08:10:05.801Z,942.9940796
2024-04-26T08:11:08.868Z,942.9984131
2024-04-26T08:12:41.338Z,943.0056152
2024-04-26T08:13:42.783Z,943.0502319
2024-04-26T08:14:44.640Z,943.0065918
2024-04-26T08:15:46.132Z,943.0145874
2024-04-26T08:16:47.740Z,942.9877319
2024-04-26T08:17:49.369Z,943.0426636
2024-04-26T08:18:50.742Z,943.0563354
2024-04-26T08:19:52.716Z,943.0678101
2024-04-26T08:20:54.139Z,943.09375
2024-04-26T08:21:55.693Z,943.0675049
2024-04-26T08:22:57.424Z,943.0423584
2024-04-26T08:23:59.203Z,943.0593872
2024-04-26T08:25:01.059Z,943.0484619
2024-04-26T08:26:01.702Z,943.0145874
2024-04-26T08:27:03.465Z,943.001709
2024-04-26T08:28:05.150Z,942.9813843
2024-04-26T08:29:06.801Z,942.996582
2024-04-26T08:30:08.714Z,943.0072021
2024-04-26T08:31:41.098Z,942.9970093
2024-04-26T08:33:18.281Z,943.0117188
2024-04-26T08:35:00.414Z,942.9953003
2024-04-26T08:36:07.874Z,943.0015869
2024-04-26T08:37:24.530Z,943.0407715
2024-04-26T08:39:09.696Z,943.0720215
2024-04-26T08:40:23.443Z,943.1101074
2024-04-26T08:42:52.717Z,943.0654907
2024-04-26T08:44:21.645Z,943.0754395
2024-04-26T08:58:13.762Z,943.1001587
2024-04-26T08:59:46.172Z,943.083374
2024-04-26T09:00:47.611Z,943.0697021
2024-04-26T09:01:49.392Z,943.0855713
2024-04-26T09:02:51.826Z,943.0927124
2024-04-26T09:03:53.948Z,943.079834
2024-04-26T09:04:55.249Z,943.0855713
2024-04-26T09:05:56.794Z,943.1068115
2024-04-26T09:06:58.792Z,943.1192017
2024-04-26T09:08:01.116Z,943.1550293
2024-04-26T09:09:02.096Z,943.1003418
2024-04-26T09:10:03.676Z,943.1168213
2024-04-26T09:11:05.665Z,943.1867065
2024-04-26T09:12:42.688Z,943.1079712
2024-04-26T09:13:39.608Z,943.0703125
2024-04-26T09:14:40.735Z,943.06073
2024-04-26T09:15:43.014Z,943.1353149
2024-04-26T09:16:44.128Z,943.1052856
2024-04-26T09:17:45.614Z,943.1126709
2024-04-26T09:21:40.521Z,943.144043
2024-04-26T09:23:55.259Z,943.1185913
2024-04-26T09:24:58.711Z,943.1289063
2024-04-26T09:26:00.451Z,943.2497559
2024-04-26T09:27:01.884Z,943.1937256
2024-04-26T09:28:04.310Z,943.2109375
2024-04-26T09:29:06.275Z,943.257019
2024-04-26T09:30:38.121Z,943.2171631
2024-04-26T09:31:39.339Z,943.22052
2024-04-26T09:32:50.308Z,943.2489014
2024-04-26T09:33:43.264Z,943.2173462
2024-04-26T09:34:44.858Z,943.2167358
2024-04-26T09:35:47.131Z,943.213501
2024-04-26T09:36:48.657Z,943.2028198
2024-04-26T09:37:49.709Z,943.2259521
2024-04-26T09:38:51.685Z,943.1812744
2024-04-26T09:39:53.221Z,943.2487793
2024-04-26T09:40:55.277Z,943.2025146
2024-04-26T09:41:56.724Z,943.2198486
2024-04-26T09:42:58.351Z,943.2745972
2024-04-26T09:43:59.596Z,943.2128296
2024-04-26T09:45:01.329Z,943.3013916
2024-04-26T09:46:02.428Z,943.293457
2024-04-26T09:47:04.287Z,943.2771606
2024-04-26T09:48:06.259Z,943.3251343
2024-04-26T09:49:38.156Z,943.3348389
2024-04-26T09:50:38.806Z,943.2998657
2024-04-26T09:51:45.012Z,943.2623291
2024-04-26T09:52:41.686Z,943.2982178
2024-04-26T09:53:43.623Z,943.305481
2024-04-26T09:54:44.674Z,943.2825928
2024-04-26T09:55:46.559Z,943.2493896
2024-04-26T09:56:47.992Z,943.263916
2024-04-26T09:57:49.034Z,943.2453003
2024-04-26T09:58:50.470Z,943.2363892
2024-04-26T09:59:52.037Z,943.2484131
2024-04-26T10:00:53.539Z,943.2541504
2024-04-26T10:01:54.530Z,943.2107544
2024-04-26T10:02:56.627Z,943.2370605
2024-04-26T10:03:57.900Z,943.2401733
2024-04-26T10:05:00.065Z,943.2407227
2024-04-26T10:06:01.307Z,943.2244263
2024-04-26T10:07:02.919Z,943.1838989
2024-04-26T10:08:04.057Z,943.2139282
2024-04-26T10:09:05.664Z,943.1757813
2024-04-26T10:10:37.228Z,943.2171631
2024-04-26T10:11:39.278Z,943.1951294
2024-04-26T10:12:40.413Z,943.2633057
2024-04-26T10:13:42.497Z,943.1951294
2024-04-26T10:14:43.934Z,943.2807617
2024-04-26T10:15:45.537Z,943.2873535
2024-04-26T10:16:46.904Z,943.3205566
2024-04-26T10:17:48.205Z,943.309082
2024-04-26T10:18:50.197Z,943.3161621
2024-04-26T10:20:07.894Z,943.3811035
2024-04-26T10:21:53.647Z,943.3703613
2024-04-26T10:22:55.775Z,943.3908081
2024-04-26T10:23:56.613Z,943.3825684
2024-04-26T10:24:57.837Z,943.4265747
2024-04-26T10:25:59.502Z,943.3822021
2024-04-26T10:27:00.786Z,943.3812256
2024-04-26T10:28:02.020Z,943.399292
2024-04-26T10:29:03.245Z,943.3549194
2024-04-26T10:30:04.566Z,943.4009399
2024-04-26T10:31:36.607Z,943.3409424
2024-04-26T10:32:38.243Z,943.3425903
2024-04-26T10:33:39.972Z,943.3501587
2024-04-26T10:34:41.808Z,943.3859253
2024-04-26T10:35:42.896Z,943.3148193
2024-04-26T10:36:44.173Z,943.300293
2024-04-26T10:37:45.053Z,943.2865601
2024-04-26T10:38:46.807Z,943.2467041
2024-04-26T10:39:47.690Z,943.2923584
2024-04-26T10:40:48.642Z,943.2828369
2024-04-26T10:41:50.198Z,943.2776489
2024-04-26T10:42:51.187Z,943.2597046
2024-04-26T10:43:52.603Z,943.2752075
2024-04-26T10:44:53.727Z,943.2940063
2024-04-26T10:45:55.467Z,943.2459106
2024-04-26T10:46:56.913Z,943.2818604
2024-04-26T10:47:58.667Z,943.3012695
2024-04-26T10:49:00.107Z,943.2778931
2024-04-26T10:50:01.350Z,943.3364258
2024-04-26T10:51:03.434Z,943.3095093
2024-04-26T10:52:04.967Z,943.354248
2024-04-26T10:53:37.141Z,943.315918
2024-04-26T10:54:39.083Z,943.3129883
2024-04-26T10:55:40.613Z,943.2996826
2024-04-26T10:56:41.769Z,943.3386841
2024-04-26T10:57:45.976Z,943.2322388
2024-04-26T10:58:45.205Z,943.2404785
2024-04-26T10:59:46.742Z,943.2199707
2024-04-26T11:00:48.003Z,943.2125854
2024-04-26T11:01:49.406Z,943.2809448
2024-04-26T11:02:50.618Z,943.2501831
2024-04-26T11:03:51.942Z,943.2388916
2024-04-26T11:04:53.419Z,943.2307129
2024-04-26T11:05:54.899Z,943.2631836
2024-04-26T11:06:56.592Z,943.2355347
2024-04-26T11:07:58.079Z,943.2266235
2024-04-26T11:08:59.694Z,943.1628418
2024-04-26T11:10:01.095Z,943.1882935
2024-04-26T11:11:02.310Z,943.2093506
2024-04-26T11:12:04.384Z,943.170166
2024-04-26T11:13:36.399Z,943.2199097
2024-04-26T11:14:37.975Z,943.182373
2024-04-26T11:15:39.394Z,943.119751
2024-04-26T11:16:42.550Z,943.0441284
2024-04-26T11:17:43.834Z,943.109375
2024-04-26T11:18:46.028Z,943.147583
2024-04-26T11:19:47.000Z,943.107666
2024-04-26T11:21:17.276Z,943.0856323
2024-04-26T11:22:51.325Z,943.0823364
2024-04-26T11:23:52.622Z,943.1328125
2024-04-26T11:24:54.165Z,943.1278076
2024-04-26T11:25:55.391Z,943.1433105
2024-04-26T11:26:57.158Z,943.093689
2024-04-26T11:27:58.569Z,943.0791626
2024-04-26T11:28:59.500Z,943.0547485
2024-04-26T11:30:00.952Z,943.0910645
2024-04-26T11:31:02.221Z,943.0463867
2024-04-26T11:32:03.088Z,943.0585938
2024-04-26T11:33:07.654Z,943.060791
2024-04-26T11:34:37.887Z,943.060791
2024-04-26T11:35:39.103Z,943.0078125
2024-04-26T11:36:41.251Z,942.9785156
2024-04-26T11:37:42.941Z,942.9458618
2024-04-26T11:38:44.459Z,942.9505615
2024-04-26T11:39:46.067Z,942.9993896
2024-04-26T11:40:47.244Z,943.0055542
2024-04-26T11:41:48.622Z,942.954834
2024-04-26T11:42:50.136Z,942.9609375
2024-04-26T11:43:51.608Z,942.9848633
2024-04-26T11:44:53.023Z,942.9467773
2024-04-26T11:45:54.489Z,942.961853
2024-04-26T11:46:56.101Z,942.9070435
2024-04-26T11:47:57.791Z,942.9619751
2024-04-26T11:48:59.934Z,942.9210815
2024-04-26T11:50:01.883Z,942.882019
2024-04-26T11:51:03.202Z,942.9354858
2024-04-26T11:52:04.006Z,942.9337769
2024-04-26T11:53:36.630Z,942.9724121
2024-04-26T11:54:38.017Z,942.914978